createdAt,value
2022-12-24T00:01:33.451Z,86.91
2022-12-24T00:04:00.067Z,86.80
2022-12-24T00:06:26.510Z,86.71
2022-12-24T00:08:53.067Z,86.51
2022-12-24T00:11:20.606Z,86.50
2022-12-24T00:13:47.612Z,86.54
2022-12-24T00:16:14.602Z,86.38
2022-12-24T00:18:45.845Z,86.37
2022-12-24T00:21:14.235Z,86.37
2022-12-24T00:23:41.446Z,86.65
2022-12-24T00:26:08.263Z,86.52
2022-12-24T00:28:34.671Z,86.63
2022-12-24T00:31:07.781Z,86.82
2022-12-24T00:33:34.213Z,86.86
2022-12-24T00:36:00.557Z,86.84
2022-12-24T00:38:26.935Z,86.82
2022-12-24T00:40:59.124Z,87.12
2022-12-24T00:43:25.598Z,87.12
2022-12-24T00:45:52.052Z,87.36
2022-12-24T00:48:18.529Z,87.24
2022-12-24T00:50:45.198Z,87.55
2022-12-24T00:53:12.015Z,87.50
2022-12-24T00:55:38.385Z,87.99
2022-12-24T00:58:04.747Z,88.26
2022-12-24T01:00:31.109Z,87.92
2022-12-24T01:02:57.796Z,88.45
2022-12-24T01:05:24.285Z,88.51
2022-12-24T01:07:50.674Z,88.67
2022-12-24T01:10:19.498Z,88.77
2022-12-24T01:12:46.815Z,88.84
2022-12-24T01:15:14.597Z,88.91
2022-12-24T01:17:41.119Z,88.82
2022-12-24T01:20:11.221Z,89.02
2022-12-24T01:22:37.564Z,89.18
2022-12-24T01:25:04.436Z,89.40
2022-12-24T01:27:30.952Z,89.16
2022-12-24T01:29:57.339Z,89.49
2022-12-24T01:32:23.834Z,89.37
2022-12-24T01:34:50.303Z,89.48
2022-12-24T01:37:16.771Z,89.54
2022-12-24T01:39:43.315Z,89.79
2022-12-24T01:42:36.402Z,89.28
2022-12-24T01:45:41.520Z,89.24
2022-12-24T01:48:17.520Z,89.12
2022-12-24T01:50:44.460Z,88.90
2022-12-24T01:53:12.678Z,88.96
2022-12-24T01:55:40.109Z,89.02
2022-12-24T01:58:09.605Z,88.80
2022-12-24T02:00:36.271Z,88.73
2022-12-24T02:03:02.974Z,88.59
2022-12-24T02:05:40.242Z,88.39
2022-12-24T02:08:07.929Z,88.47
2022-12-24T02:10:34.552Z,88.55
2022-12-24T02:13:02.339Z,88.19
2022-12-24T02:15:42.746Z,88.24
2022-12-24T02:18:26.066Z,88.27
2022-12-24T02:21:37.507Z,88.36
2022-12-24T02:24:31.697Z,88.76
2022-12-24T02:27:08.798Z,88.81
2022-12-24T02:29:44.312Z,88.95
2022-12-24T02:32:18.328Z,88.84
2022-12-24T02:35:09.436Z,88.56
2022-12-24T02:37:53.100Z,88.87
2022-12-24T02:40:28.992Z,89.10
2022-12-24T02:43:00.806Z,89.04
2022-12-24T02:45:35.418Z,89.09
2022-12-24T02:48:02.163Z,89.30
2022-12-24T02:50:28.785Z,89.56
2022-12-24T02:52:55.390Z,90.03
2022-12-24T02:55:28.320Z,90.17
2022-12-24T02:58:13.677Z,90.05
2022-12-24T03:01:16.428Z,89.97
2022-12-24T03:04:06.990Z,90.01
2022-12-24T03:07:04.942Z,90.25
2022-12-24T03:09:45.271Z,90.44
2022-12-24T03:12:17.363Z,90.54
2022-12-24T03:14:45.236Z,90.44
2022-12-24T03:17:12.741Z,90.33
2022-12-24T03:19:40.408Z,90.33
2022-12-24T03:22:11.505Z,90.34
2022-12-24T03:24:38.286Z,90.45
2022-12-24T03:27:08.217Z,90.62
2022-12-24T03:29:34.910Z,90.72
2022-12-24T03:32:03.868Z,91.14
2022-12-24T03:34:30.409Z,91.55
2022-12-24T03:36:56.872Z,91.71
2022-12-24T03:39:23.965Z,91.90
2022-12-24T03:41:50.465Z,92.38
2022-12-24T03:44:16.969Z,92.59
2022-12-24T03:46:43.346Z,92.69
2022-12-24T03:49:09.825Z,93.14
2022-12-24T03:51:36.244Z,93.29
2022-12-24T03:54:02.630Z,93.55
2022-12-24T03:56:29.098Z,93.93
2022-12-24T03:58:55.584Z,93.92
2022-12-24T04:01:22.062Z,94.08
2022-12-24T04:03:48.581Z,94.54
2022-12-24T04:06:17.781Z,94.79
2022-12-24T04:08:44.479Z,95.14
2022-12-24T04:11:13.668Z,95.36
2022-12-24T04:13:40.087Z,95.82
2022-12-24T04:16:10.660Z,95.81
2022-12-24T04:18:38.408Z,95.94
2022-12-24T04:21:05.744Z,95.93
2022-12-24T04:23:35.290Z,96.09
2022-12-24T04:26:03.007Z,95.83
2022-12-24T04:28:30.392Z,95.73
2022-12-24T04:31:01.384Z,95.51
2022-12-24T04:33:28.148Z,95.76
2022-12-24T04:35:54.898Z,95.92
2022-12-24T04:38:21.327Z,95.85
2022-12-24T04:40:47.717Z,96.04
2022-12-24T04:43:14.654Z,96.12
2022-12-24T04:45:41.021Z,96.44
2022-12-24T04:48:07.458Z,96.49
2022-12-24T04:50:33.965Z,97.07
2022-12-24T04:53:00.385Z,97.11
2022-12-24T04:55:26.739Z,96.84
2022-12-24T04:57:53.462Z,97.00
2022-12-24T05:00:20.214Z,96.96
2022-12-24T05:02:46.675Z,97.08
2022-12-24T05:05:13.120Z,97.07
2022-12-24T05:07:39.516Z,97.25
2022-12-24T05:10:06.765Z,97.26
2022-12-24T05:12:33.198Z,97.19
2022-12-24T05:14:59.614Z,97.57
2022-12-24T05:17:26.000Z,97.64
2022-12-24T05:19:52.539Z,97.78
2022-12-24T05:22:37.608Z,97.87
2022-12-24T05:25:22.995Z,97.83
2022-12-24T05:27:51.529Z,97.97
2022-12-24T05:30:18.057Z,98.25
2022-12-24T05:32:44.656Z,98.51
2022-12-24T05:35:11.045Z,98.73
2022-12-24T05:37:37.451Z,98.58
2022-12-24T05:40:04.198Z,99.18
2022-12-24T05:42:30.615Z,99.10
2022-12-24T05:44:57.946Z,99.01
2022-12-24T05:47:24.351Z,99.17
2022-12-24T05:49:50.689Z,98.78
2022-12-24T05:52:17.090Z,98.51
2022-12-24T05:54:43.514Z,98.57
2022-12-24T05:57:10.004Z,98.98
2022-12-24T05:59:36.466Z,98.92
2022-12-24T06:02:02.998Z,99.27
2022-12-24T06:04:29.703Z,99.36
2022-12-24T06:06:56.198Z,99.33
2022-12-24T06:09:22.735Z,99.28
2022-12-24T06:11:49.177Z,99.13
2022-12-24T06:14:15.604Z,99.40
2022-12-24T06:16:42.007Z,99.87
2022-12-24T06:19:08.478Z,100.00
2022-12-24T06:21:34.875Z,99.80
2022-12-24T06:24:01.653Z,100.00
2022-12-24T06:26:27.957Z,100.00
2022-12-24T06:28:54.299Z,100.00
2022-12-24T06:31:23.156Z,100.00
2022-12-24T06:33:50.754Z,100.00
2022-12-24T06:36:19.910Z,100.00
2022-12-24T06:38:47.510Z,100.00
2022-12-24T06:41:14.673Z,100.00
2022-12-24T06:43:50.116Z,100.00
2022-12-24T06:46:17.585Z,100.00
2022-12-24T06:48:45.560Z,100.00
2022-12-24T06:51:16.784Z,100.00
2022-12-24T06:53:43.298Z,100.00
2022-12-24T06:56:12.077Z,100.00
2022-12-24T06:58:39.369Z,100.00
2022-12-24T07:01:08.756Z,100.00
2022-12-24T07:03:35.874Z,100.00
2022-12-24T07:06:02.621Z,100.00
2022-12-24T07:08:29.348Z,100.00
2022-12-24T07:10:55.720Z,100.00
2022-12-24T07:13:22.355Z,100.00
2022-12-24T07:16:00.705Z,100.00
2022-12-24T07:18:27.426Z,100.00
2022-12-24T07:20:53.944Z,100.00
2022-12-24T07:23:20.922Z,100.00
2022-12-24T07:25:47.369Z,100.00
2022-12-24T07:28:13.775Z,100.00
2022-12-24T07:30:40.245Z,100.00
2022-12-24T07:33:06.891Z,100.00
2022-12-24T07:35:33.216Z,100.00
2022-12-24T07:37:59.631Z,100.00
2022-12-24T07:40:26.053Z,100.00
2022-12-24T07:42:52.442Z,100.00
2022-12-24T07:45:18.830Z,100.00
2022-12-24T07:47:45.264Z,100.00
2022-12-24T07:50:11.914Z,100.00
2022-12-24T07:52:38.305Z,100.00
2022-12-24T07:55:05.117Z,100.00
2022-12-24T07:57:31.583Z,100.00
2022-12-24T07:59:57.971Z,100.00
2022-12-24T08:02:24.598Z,100.00
2022-12-24T08:04:51.089Z,100.00
2022-12-24T08:07:17.476Z,100.00
2022-12-24T08:09:46.050Z,100.00
2022-12-24T08:12:12.576Z,100.00
2022-12-24T08:14:39.202Z,100.00
2022-12-24T08:17:05.685Z,100.00
2022-12-24T08:19:32.121Z,100.00
2022-12-24T08:21:58.530Z,100.00
2022-12-24T08:24:25.001Z,100.00
2022-12-24T08:26:51.383Z,100.00
2022-12-24T08:29:20.970Z,100.00
2022-12-24T08:31:48.627Z,100.00
2022-12-24T08:34:15.110Z,100.00
2022-12-24T08:36:41.555Z,100.00
2022-12-24T08:39:08.865Z,100.00
2022-12-24T08:41:35.398Z,100.00
2022-12-24T08:44:01.889Z,100.00
2022-12-24T08:46:28.315Z,100.00
2022-12-24T08:48:54.799Z,100.00
2022-12-24T08:51:21.277Z,100.00
2022-12-24T08:53:47.634Z,100.00
2022-12-24T08:56:14.076Z,100.00
2022-12-24T08:58:40.625Z,100.00
2022-12-24T09:01:15.712Z,100.00
2022-12-24T09:03:42.846Z,99.84
2022-12-24T09:06:10.684Z,99.64
2022-12-24T09:08:37.175Z,99.56
2022-12-24T09:11:08.510Z,99.34
2022-12-24T09:13:35.049Z,99.15
2022-12-24T09:16:02.092Z,99.16
2022-12-24T09:18:29.082Z,98.73
2022-12-24T09:21:03.176Z,98.91
2022-12-24T09:23:30.372Z,98.92
2022-12-24T09:25:57.460Z,99.24
2022-12-24T09:28:24.063Z,99.06
2022-12-24T09:30:59.544Z,99.15
2022-12-24T09:33:27.142Z,98.16
2022-12-24T09:35:54.185Z,98.59
2022-12-24T09:38:21.309Z,98.47
2022-12-24T09:40:49.020Z,99.12
2022-12-24T09:43:18.780Z,98.69
2022-12-24T09:46:15.135Z,98.31
2022-12-24T09:48:46.675Z,98.38
2022-12-24T09:51:34.131Z,98.08
2022-12-24T09:54:05.633Z,98.14
2022-12-24T09:56:38.551Z,98.24
2022-12-24T09:59:09.846Z,97.84
2022-12-24T10:01:36.280Z,98.08
2022-12-24T10:04:07.556Z,97.55
2022-12-24T10:06:44.571Z,97.85
2022-12-24T10:09:23.087Z,97.31
2022-12-24T10:12:10.978Z,97.14
2022-12-24T10:15:24.972Z,97.28
2022-12-24T10:18:22.109Z,97.08
2022-12-24T10:21:22.134Z,97.16
2022-12-24T10:24:00.827Z,97.02
2022-12-24T10:26:45.237Z,97.03
2022-12-24T10:29:20.883Z,96.76
2022-12-24T10:32:17.524Z,96.53
2022-12-24T10:35:11.897Z,96.61
2022-12-24T10:37:39.018Z,96.76
2022-12-24T10:40:06.120Z,96.61
2022-12-24T10:42:44.709Z,96.61
2022-12-24T10:45:19.452Z,96.54
2022-12-24T10:47:48.737Z,96.52
2022-12-24T10:50:21.087Z,96.41
2022-12-24T10:52:49.207Z,96.50
2022-12-24T10:55:18.329Z,96.19
2022-12-24T10:58:00.829Z,96.35
2022-12-24T11:00:33.741Z,96.13
2022-12-24T11:03:22.305Z,95.88
2022-12-24T11:06:00.960Z,95.71
2022-12-24T11:08:27.460Z,95.69
2022-12-24T11:11:00.696Z,95.61
2022-12-24T11:13:38.484Z,95.82
2022-12-24T11:16:11.021Z,95.22
2022-12-24T11:18:50.559Z,94.90
2022-12-24T11:21:40.362Z,94.93
2022-12-24T11:24:12.761Z,94.60
2022-12-24T11:26:41.231Z,94.43
2022-12-24T11:29:19.722Z,94.47
2022-12-24T11:31:47.111Z,94.06
2022-12-24T11:34:27.876Z,93.55
2022-12-24T11:37:10.696Z,93.57
2022-12-24T11:39:51.099Z,93.38
2022-12-24T11:42:33.066Z,93.54
2022-12-24T11:45:26.934Z,92.93
2022-12-24T11:47:54.306Z,92.08
2022-12-24T11:50:29.831Z,91.74
2022-12-24T11:53:04.110Z,91.65
2022-12-24T11:55:59.157Z,90.86
2022-12-24T11:58:31.806Z,90.82
2022-12-24T12:01:08.819Z,90.62
2022-12-24T12:03:48.419Z,90.04
2022-12-24T12:06:55.517Z,89.05
2022-12-24T12:09:31.315Z,89.14
2022-12-24T12:12:09.636Z,89.14
2022-12-24T12:14:45.216Z,88.99
2022-12-24T12:17:17.647Z,89.20
2022-12-24T12:19:49.794Z,88.91
2022-12-24T12:22:45.516Z,88.58
2022-12-24T12:25:22.547Z,88.39
2022-12-24T12:27:53.358Z,88.10
2022-12-24T12:30:21.662Z,88.51
2022-12-24T12:32:53.950Z,88.27
2022-12-24T12:35:33.639Z,88.25
2022-12-24T12:38:05.536Z,87.78
2022-12-24T12:41:01.984Z,87.86
2022-12-24T12:44:12.978Z,87.87
2022-12-24T12:47:07.409Z,88.03
2022-12-24T12:50:09.307Z,88.06
2022-12-24T12:52:53.930Z,87.91
2022-12-24T12:55:46.364Z,87.60
2022-12-24T12:58:17.062Z,87.63
2022-12-24T13:00:47.508Z,87.54
2022-12-24T13:03:50.851Z,87.57
2022-12-24T13:06:39.505Z,87.66
2022-12-24T13:09:12.653Z,87.65
2022-12-24T13:11:53.756Z,87.63
2022-12-24T13:14:49.172Z,87.55
2022-12-24T13:17:38.349Z,87.31
2022-12-24T13:20:23.666Z,87.25
2022-12-24T13:23:12.490Z,86.59
2022-12-24T13:25:41.196Z,86.19
2022-12-24T13:28:22.778Z,86.02
2022-12-24T13:31:13.654Z,85.96
2022-12-24T13:33:39.945Z,85.79
2022-12-24T13:36:16.579Z,85.99
2022-12-24T13:38:49.928Z,85.76
2022-12-24T13:41:41.857Z,85.60
2022-12-24T13:44:13.216Z,85.42
2022-12-24T13:46:47.073Z,85.27
2022-12-24T13:49:25.672Z,85.53
2022-12-24T13:52:04.492Z,85.29
2022-12-24T13:54:31.143Z,85.16
2022-12-24T13:56:59.823Z,85.26
2022-12-24T13:59:38.693Z,85.15
2022-12-24T14:02:17.988Z,84.52
2022-12-24T14:04:44.544Z,83.76
2022-12-24T14:07:11.562Z,83.29
2022-12-24T14:09:38.158Z,82.77
2022-12-24T14:12:04.516Z,82.27
2022-12-24T14:14:32.952Z,81.25
2022-12-24T14:17:14.986Z,80.62
2022-12-24T14:19:44.721Z,80.23
2022-12-24T14:22:43.916Z,79.77
2022-12-24T14:25:17.481Z,80.09
2022-12-24T14:27:50.590Z,79.85
2022-12-24T14:30:30.232Z,79.96
2022-12-24T14:32:57.087Z,80.23
2022-12-24T14:35:30.367Z,80.00
2022-12-24T14:38:14.438Z,80.31
2022-12-24T14:41:06.098Z,80.53
2022-12-24T14:44:05.065Z,80.38
2022-12-24T14:46:54.032Z,80.30
2022-12-24T14:50:03.801Z,80.52
2022-12-24T14:53:09.278Z,80.75
2022-12-24T14:55:46.111Z,80.98
2022-12-24T14:58:18.481Z,81.13
2022-12-24T15:00:45.420Z,81.39
2022-12-24T15:03:14.679Z,81.42
2022-12-24T15:05:42.368Z,81.63
2022-12-24T15:08:12.436Z,81.66
2022-12-24T15:10:44.322Z,82.04
2022-12-24T15:13:36.815Z,82.13
2022-12-24T15:16:06.338Z,82.03
2022-12-24T15:18:36.385Z,82.19
2022-12-24T15:21:05.539Z,82.37
2022-12-24T15:23:35.066Z,82.53
2022-12-24T15:26:20.745Z,82.74
2022-12-24T15:28:47.221Z,83.00
2022-12-24T15:31:17.236Z,83.29
2022-12-24T15:33:48.503Z,83.48
2022-12-24T15:36:17.933Z,84.06
2022-12-24T15:38:51.838Z,84.46
2022-12-24T15:41:24.831Z,84.82
2022-12-24T15:43:54.349Z,85.09
2022-12-24T15:46:24.494Z,84.87
2022-12-24T15:48:53.860Z,85.31
2022-12-24T15:51:34.321Z,85.84
2022-12-24T15:54:18.225Z,86.14
2022-12-24T15:56:46.066Z,86.37
2022-12-24T15:59:15.863Z,86.41
2022-12-24T16:01:44.185Z,86.91
2022-12-24T16:04:16.673Z,86.81
2022-12-24T16:06:59.358Z,87.30
2022-12-24T16:09:41.428Z,87.79
2022-12-24T16:12:23.323Z,88.00
2022-12-24T16:14:56.879Z,88.14
2022-12-24T16:17:26.158Z,88.71
2022-12-24T16:19:57.056Z,89.21
2022-12-24T16:22:33.008Z,89.17
2022-12-24T16:25:00.721Z,89.62
2022-12-24T16:27:27.296Z,90.15
2022-12-24T16:29:54.457Z,90.02
2022-12-24T16:32:28.026Z,90.53
2022-12-24T16:34:54.439Z,90.43
2022-12-24T16:37:20.830Z,91.73
2022-12-24T16:39:48.379Z,92.67
2022-12-24T16:42:33.351Z,92.53
2022-12-24T16:44:59.739Z,92.26
2022-12-24T16:47:32.396Z,91.97
2022-12-24T16:50:03.295Z,92.21
2022-12-24T16:52:33.494Z,92.17
2022-12-24T16:55:00.838Z,92.20
2022-12-24T16:57:28.146Z,92.02
2022-12-24T16:59:55.242Z,92.40
2022-12-24T17:02:23.712Z,92.91
2022-12-24T17:04:50.545Z,93.18
2022-12-24T17:07:19.082Z,92.94
2022-12-24T17:09:45.485Z,93.03
2022-12-24T17:12:12.185Z,92.63
2022-12-24T17:14:39.785Z,93.21
2022-12-24T17:17:06.313Z,93.16
2022-12-24T17:19:32.719Z,93.09
2022-12-24T17:21:59.196Z,92.86
2022-12-24T17:24:25.599Z,93.18
2022-12-24T17:26:52.101Z,93.28
2022-12-24T17:29:18.457Z,93.40
2022-12-24T17:31:44.967Z,93.66
2022-12-24T17:34:11.490Z,93.86
2022-12-24T17:36:37.855Z,94.05
2022-12-24T17:39:04.256Z,94.26
2022-12-24T17:41:30.757Z,95.55
2022-12-24T17:43:58.501Z,95.88
2022-12-24T17:46:25.126Z,96.06
2022-12-24T17:48:52.162Z,96.21
2022-12-24T17:51:22.362Z,96.03
2022-12-24T17:53:49.278Z,96.39
2022-12-24T17:56:17.364Z,96.90
2022-12-24T17:58:45.505Z,96.96
2022-12-24T18:01:14.222Z,97.03
2022-12-24T18:03:40.801Z,97.24
2022-12-24T18:06:10.042Z,97.20
2022-12-24T18:08:37.810Z,97.35
2022-12-24T18:11:24.353Z,97.33
2022-12-24T18:13:51.368Z,97.52
2022-12-24T18:16:24.030Z,98.02
2022-12-24T18:18:51.542Z,98.17
2022-12-24T18:21:20.036Z,98.15
2022-12-24T18:23:48.117Z,98.03
2022-12-24T18:26:15.694Z,97.84
2022-12-24T18:28:43.137Z,97.68
2022-12-24T18:31:13.461Z,97.88
2022-12-24T18:33:40.349Z,97.92
2022-12-24T18:36:07.473Z,98.34
2022-12-24T18:38:34.278Z,98.34
2022-12-24T18:41:09.364Z,98.40
2022-12-24T18:43:36.146Z,98.65
2022-12-24T18:46:10.704Z,98.48
2022-12-24T18:48:37.414Z,98.75
2022-12-24T18:51:04.875Z,98.69
2022-12-24T18:53:31.701Z,99.24
2022-12-24T18:56:10.265Z,99.79
2022-12-24T18:58:37.900Z,100.00
2022-12-24T19:01:13.183Z,100.00
2022-12-24T19:03:39.710Z,100.00
2022-12-24T19:06:07.231Z,100.00
2022-12-24T19:11:20.212Z,100.00
2022-12-24T19:13:50.943Z,100.00
2022-12-24T19:16:18.019Z,100.00
2022-12-24T19:18:44.584Z,99.72
2022-12-24T19:21:13.346Z,100.00
2022-12-24T19:23:39.786Z,100.00
2022-12-24T19:26:06.301Z,100.00
2022-12-24T19:28:33.096Z,100.00
2022-12-24T19:31:05.469Z,100.00
2022-12-24T19:33:42.151Z,100.00
2022-12-24T19:36:11.973Z,100.00
2022-12-24T19:38:38.489Z,100.00
2022-12-24T19:41:06.663Z,100.00
2022-12-24T19:43:33.282Z,100.00
2022-12-24T19:45:59.755Z,100.00
2022-12-24T19:48:26.260Z,100.00
2022-12-24T19:50:59.294Z,100.00
2022-12-24T19:53:25.699Z,100.00
2022-12-24T19:55:52.040Z,100.00
2022-12-24T19:58:18.375Z,100.00
2022-12-24T20:00:44.866Z,100.00
2022-12-24T20:03:11.474Z,100.00
2022-12-24T20:05:41.477Z,100.00
2022-12-24T20:08:07.995Z,100.00
2022-12-24T20:10:41.941Z,100.00
2022-12-24T20:13:08.593Z,100.00
2022-12-24T20:15:42.912Z,100.00
2022-12-24T20:18:10.540Z,100.00
2022-12-24T20:20:37.040Z,100.00
2022-12-24T20:23:04.346Z,100.00
2022-12-24T20:25:34.177Z,100.00
2022-12-24T20:28:00.704Z,100.00
2022-12-24T20:30:27.112Z,100.00
2022-12-24T20:32:54.459Z,100.00
2022-12-24T20:35:21.466Z,100.00
2022-12-24T20:37:47.907Z,100.00
2022-12-24T20:40:14.578Z,100.00
2022-12-24T20:42:41.067Z,100.00
2022-12-24T20:45:07.685Z,100.00
2022-12-24T20:47:34.677Z,100.00
2022-12-24T20:50:01.552Z,100.00
2022-12-24T20:52:27.848Z,100.00
2022-12-24T20:54:54.324Z,100.00
2022-12-24T20:57:26.001Z,100.00
2022-12-24T20:59:54.378Z,100.00
2022-12-24T21:02:20.961Z,100.00
2022-12-24T21:04:47.639Z,100.00
2022-12-24T21:07:14.451Z,100.00
2022-12-24T21:09:41.639Z,100.00
2022-12-24T21:12:29.869Z,100.00
2022-12-24T21:14:56.374Z,100.00
2022-12-24T21:17:22.852Z,100.00
2022-12-24T21:19:49.510Z,100.00
2022-12-24T21:22:15.954Z,100.00
2022-12-24T21:24:42.368Z,100.00
2022-12-24T21:27:08.855Z,100.00
2022-12-24T21:29:35.482Z,100.00
2022-12-24T21:32:01.798Z,100.00
2022-12-24T21:34:28.398Z,100.00
2022-12-24T21:36:54.866Z,100.00
2022-12-24T21:39:21.290Z,100.00
2022-12-24T21:41:47.768Z,100.00
2022-12-24T21:44:14.347Z,100.00
2022-12-24T21:46:40.774Z,100.00
2022-12-24T21:49:28.348Z,100.00
2022-12-24T21:51:54.791Z,100.00
2022-12-24T21:54:25.370Z,100.00
2022-12-24T21:57:15.363Z,100.00
2022-12-24T21:59:42.139Z,100.00
2022-12-24T22:02:11.290Z,100.00
2022-12-24T22:04:37.986Z,100.00
2022-12-24T22:07:23.685Z,100.00
2022-12-24T22:10:09.017Z,100.00
2022-12-24T22:12:36.218Z,100.00
2022-12-24T22:15:05.918Z,100.00
2022-12-24T22:17:32.271Z,100.00
2022-12-24T22:19:58.881Z,100.00
2022-12-24T22:22:25.401Z,100.00
2022-12-24T22:24:51.799Z,100.00
2022-12-24T22:27:18.310Z,100.00
2022-12-24T22:29:44.741Z,100.00
2022-12-24T22:32:11.248Z,100.00
2022-12-24T22:34:37.584Z,100.00
2022-12-24T22:37:03.977Z,100.00
2022-12-24T22:39:30.346Z,100.00
2022-12-24T22:41:58.002Z,100.00
2022-12-24T22:44:24.739Z,100.00
2022-12-24T22:46:51.120Z,100.00
2022-12-24T22:49:17.520Z,100.00
2022-12-24T22:51:43.892Z,100.00
2022-12-24T22:54:10.322Z,100.00
2022-12-24T22:56:40.967Z,100.00
2022-12-24T22:59:07.869Z,100.00
2022-12-24T23:01:39.945Z,100.00
2022-12-24T23:04:07.169Z,100.00
2022-12-24T23:06:34.377Z,100.00
2022-12-24T23:09:01.250Z,100.00
2022-12-24T23:11:27.830Z,100.00
2022-12-24T23:14:12.827Z,100.00
2022-12-24T23:16:39.330Z,100.00
2022-12-24T23:19:06.638Z,100.00
2022-12-24T23:21:34.493Z,100.00
2022-12-24T23:24:02.083Z,100.00
2022-12-24T23:26:29.149Z,100.00
2022-12-24T23:28:56.156Z,100.00
2022-12-24T23:31:23.431Z,100.00
2022-12-24T23:33:50.181Z,100.00
2022-12-24T23:36:17.140Z,100.00
2022-12-24T23:38:43.601Z,100.00
2022-12-24T23:41:11.034Z,100.00
2022-12-24T23:43:37.610Z,100.00
2022-12-24T23:46:04.487Z,100.00
2022-12-24T23:48:30.955Z,100.00
2022-12-24T23:51:06.666Z,100.00
2022-12-24T23:53:33.378Z,100.00
2022-12-24T23:56:00.109Z,100.00
2022-12-24T23:58:26.514Z,100.00
